Time;durP1;ratioP1;P1;durP2;ratioP2;P2;SDS_P1;SDS_P2;PMS_P1;PMS_P2;Temp;Humidity;BMP_temperature;BMP_pressure;BME280_temperature;BME280_humidity;BME280_pressure;Samples;Min_cycle;Max_cycle;Signal;HPM_P1;HPM_P2
2022/04/17 00:01:34;;;;;;;5.63;3.28;;;5.80;99.90;;;;;;5072223;28;20040;-79
2022/04/17 00:03:59;;;;;;;3.80;2.90;;;5.80;99.90;;;;;;5049636;28;20045;-80
2022/04/17 00:06:25;;;;;;;8.07;4.22;;;5.80;99.90;;;;;;5050936;28;20048;-80
2022/04/17 00:08:51;;;;;;;6.60;3.42;;;5.80;99.90;;;;;;5068015;28;20044;-81
2022/04/17 00:11:16;;;;;;;18.40;3.97;;;5.80;99.90;;;;;;5053201;28;20041;-80
2022/04/17 00:13:45;;;;;;;5.57;3.95;;;5.70;99.90;;;;;;5051368;28;20044;-80
2022/04/17 00:16:11;;;;;;;6.30;3.55;;;5.70;99.90;;;;;;5051201;28;20066;-80
2022/04/17 00:18:37;;;;;;;3.88;2.92;;;5.60;99.90;;;;;;5068515;28;20436;-80
2022/04/17 00:21:03;;;;;;;4.78;4.15;;;5.70;99.90;;;;;;5069797;28;20041;-80
2022/04/17 00:23:29;;;;;;;4.43;2.60;;;5.70;99.90;;;;;;5049297;28;20049;-78
2022/04/17 00:25:54;;;;;;;5.43;3.30;;;5.60;99.90;;;;;;5063258;28;20055;-80
2022/04/17 00:28:20;;;;;;;8.93;3.30;;;5.60;99.90;;;;;;5056098;28;20066;-79
2022/04/17 00:30:46;;;;;;;5.13;3.35;;;5.60;99.90;;;;;;5058247;28;20641;-80
2022/04/17 00:33:11;;;;;;;6.05;4.00;;;5.50;99.90;;;;;;5049980;28;20045;-79
2022/04/17 00:35:38;;;;;;;8.13;4.10;;;5.50;99.90;;;;;;5031784;28;20045;-79
2022/04/17 00:38:04;;;;;;;7.00;4.88;;;5.50;99.90;;;;;;5050781;28;20437;-79
2022/04/17 00:40:30;;;;;;;5.93;3.45;;;5.60;99.90;;;;;;5065302;28;20069;-79
2022/04/17 00:42:59;;;;;;;5.03;4.00;;;5.50;99.90;;;;;;5062940;28;20075;-78
2022/04/17 00:45:25;;;;;;;4.95;3.20;;;5.50;99.90;;;;;;5054202;28;20068;-78
2022/04/17 00:47:50;;;;;;;5.68;3.42;;;5.20;99.90;;;;;;5070668;28;20394;-78
2022/04/17 00:50:16;;;;;;;7.07;3.92;;;5.10;99.90;;;;;;5062364;28;20036;-79
2022/04/17 00:52:44;;;;;;;6.53;4.25;;;5.10;99.90;;;;;;5067871;28;20051;-79
2022/04/17 00:55:10;;;;;;;5.70;4.22;;;5.10;99.90;;;;;;5063063;28;20516;-79
2022/04/17 00:57:37;;;;;;;8.18;4.88;;;5.10;99.90;;;;;;5059434;28;20391;-79
2022/04/17 01:00:05;;;;;;;7.03;3.30;;;5.10;99.90;;;;;;5053305;28;20411;-80
2022/04/17 01:02:31;;;;;;;4.88;3.03;;;5.10;99.90;;;;;;5059580;28;20053;-78
2022/04/17 01:04:57;;;;;;;4.15;3.30;;;5.00;99.90;;;;;;5063724;28;20456;-79
2022/04/17 01:07:23;;;;;;;5.22;4.03;;;4.90;99.90;;;;;;5042733;28;20044;-80
2022/04/17 01:09:50;;;;;;;5.05;4.25;;;4.90;99.90;;;;;;5053804;28;20123;-80
2022/04/17 01:12:17;;;;;;;8.43;4.00;;;4.90;99.90;;;;;;5053063;28;20056;-79
2022/04/17 01:14:44;;;;;;;8.23;4.15;;;4.80;99.90;;;;;;5052890;28;20059;-80
2022/04/17 01:17:10;;;;;;;8.90;4.88;;;4.80;99.90;;;;;;5059758;28;20047;-79
2022/04/17 01:19:37;;;;;;;5.22;4.15;;;4.80;99.90;;;;;;5052280;28;20068;-80
2022/04/17 01:22:05;;;;;;;5.32;3.92;;;4.80;99.90;;;;;;5051632;28;20041;-79
2022/04/17 01:27:33;;;;;;;7.60;4.20;;;4.90;99.90;;;;;;4996355;28;20054;-81
2022/04/17 01:29:58;;;;;;;6.72;4.63;;;4.80;99.90;;;;;;5041019;28;20570;-79
2022/04/17 01:32:24;;;;;;;5.45;4.18;;;4.80;99.90;;;;;;5051823;28;20096;-79
2022/04/17 01:34:50;;;;;;;7.30;4.90;;;4.80;99.90;;;;;;5052702;28;20040;-79
2022/04/17 01:37:17;;;;;;;12.18;5.20;;;4.80;99.90;;;;;;5052470;28;20491;-79
2022/04/17 01:39:43;;;;;;;6.53;4.82;;;4.80;99.90;;;;;;5053981;28;20041;-80
2022/04/17 01:42:11;;;;;;;8.85;5.20;;;4.90;99.90;;;;;;5054990;28;20513;-77
2022/04/17 01:44:36;;;;;;;7.05;4.10;;;4.70;99.90;;;;;;5052997;28;20037;-79
2022/04/17 01:47:02;;;;;;;5.28;3.95;;;4.70;99.90;;;;;;5052759;28;20144;-79
2022/04/17 01:49:28;;;;;;;8.43;4.65;;;4.80;99.90;;;;;;5059442;28;20047;-79
2022/04/17 01:51:55;;;;;;;7.78;4.03;;;4.70;99.90;;;;;;5063850;28;20045;-81
2022/04/17 01:54:23;;;;;;;5.57;4.32;;;4.70;99.90;;;;;;5034168;28;20056;-79
2022/04/17 01:56:49;;;;;;;6.07;4.47;;;4.70;99.90;;;;;;5053931;28;20507;-79
2022/04/17 01:59:16;;;;;;;8.40;5.00;;;4.60;99.90;;;;;;5062476;28;20049;-80
2022/04/17 02:01:42;;;;;;;5.88;4.97;;;4.60;99.90;;;;;;5062042;28;20064;-79
2022/04/17 02:04:09;;;;;;;8.70;5.72;;;4.50;99.90;;;;;;5051296;28;20079;-81
2022/04/17 02:06:39;;;;;;;6.32;4.90;;;4.50;99.90;;;;;;5062408;28;20037;-80
2022/04/17 02:09:07;;;;;;;7.18;5.35;;;4.50;99.90;;;;;;5064339;28;20041;-82
2022/04/17 02:11:33;;;;;;;7.65;5.30;;;4.40;99.90;;;;;;5072531;28;20037;-80
2022/04/17 02:13:59;;;;;;;7.10;4.95;;;4.40;99.90;;;;;;5072405;28;20138;-80
2022/04/17 02:16:25;;;;;;;6.97;5.22;;;4.50;99.90;;;;;;5067564;28;20126;-81
2022/04/17 02:18:52;;;;;;;17.40;6.18;;;4.50;99.90;;;;;;5058057;28;20044;-81
2022/04/17 02:21:18;;;;;;;8.07;4.53;;;4.50;99.90;;;;;;5057535;28;20068;-81
2022/04/17 02:23:45;;;;;;;9.23;5.78;;;4.50;99.90;;;;;;5051679;28;20099;-81
2022/04/17 02:26:12;;;;;;;6.45;5.07;;;4.50;99.90;;;;;;5054510;28;20672;-80
2022/04/17 02:28:40;;;;;;;8.48;5.05;;;4.40;99.90;;;;;;5071970;28;20213;-81
2022/04/17 02:31:07;;;;;;;7.15;5.20;;;4.40;99.90;;;;;;5063956;28;20056;-81
2022/04/17 02:33:33;;;;;;;8.32;5.65;;;4.40;99.90;;;;;;5071703;28;20048;-81
2022/04/17 02:35:59;;;;;;;7.95;6.40;;;4.30;99.90;;;;;;5062324;28;20040;-79
2022/04/17 02:38:26;;;;;;;7.82;4.97;;;4.30;99.90;;;;;;5051590;28;20503;-78
2022/04/17 02:40:52;;;;;;;7.00;5.97;;;4.20;99.90;;;;;;5051547;28;20510;-80
2022/04/17 02:43:18;;;;;;;7.50;5.00;;;4.10;99.90;;;;;;5068744;28;20048;-78
2022/04/17 02:45:44;;;;;;;9.77;6.47;;;4.20;99.90;;;;;;5056538;28;20048;-80
2022/04/17 02:48:10;;;;;;;7.43;5.80;;;4.10;99.90;;;;;;5054546;28;20114;-77
2022/04/17 02:50:35;;;;;;;6.47;4.72;;;4.10;99.90;;;;;;5054174;28;20067;-81
2022/04/17 02:53:01;;;;;;;9.40;6.00;;;4.20;99.90;;;;;;5061659;28;20079;-79
2022/04/17 02:55:27;;;;;;;7.53;5.25;;;4.20;99.90;;;;;;5054851;28;20036;-80
2022/04/17 02:57:54;;;;;;;9.05;6.43;;;4.10;99.90;;;;;;5069096;28;20581;-81
2022/04/17 03:00:20;;;;;;;11.55;6.97;;;4.10;99.90;;;;;;5051521;28;20044;-78
2022/04/17 03:05:36;;;;;;;7.97;6.03;;;4.10;99.90;;;;;;5050792;28;20499;-80
2022/04/17 03:08:10;;;;;;;11.13;6.78;;;4.10;99.90;;;;;;5051013;28;20127;-80
2022/04/17 03:10:38;;;;;;;9.95;5.57;;;4.10;99.90;;;;;;5051501;28;20049;-77
2022/04/17 03:13:04;;;;;;;8.05;5.90;;;4.00;99.90;;;;;;5051536;28;20177;-80
2022/04/17 03:15:31;;;;;;;9.15;5.60;;;4.00;99.90;;;;;;5050046;28;20549;-81
2022/04/17 03:17:58;;;;;;;8.93;5.72;;;4.10;99.90;;;;;;5067965;28;21041;-80
2022/04/17 03:20:27;;;;;;;7.75;5.90;;;4.00;99.90;;;;;;5066580;28;20071;-80
2022/04/17 03:22:54;;;;;;;8.02;5.53;;;3.90;99.90;;;;;;5050730;28;20033;-80
2022/04/17 03:25:20;;;;;;;9.88;5.85;;;3.80;99.90;;;;;;5062796;28;20433;-77
2022/04/17 03:27:49;;;;;;;10.93;6.10;;;3.80;99.90;;;;;;5049375;28;20103;-79
2022/04/17 03:30:16;;;;;;;12.40;7.10;;;3.80;99.90;;;;;;5050003;28;20037;-79
2022/04/17 03:32:43;;;;;;;12.15;6.43;;;3.70;99.90;;;;;;5050023;28;20045;-78
2022/04/17 03:35:10;;;;;;;9.00;6.60;;;3.70;99.90;;;;;;5053132;28;20045;-76
2022/04/17 03:37:36;;;;;;;8.57;5.97;;;3.70;99.90;;;;;;5052549;28;20078;-79
2022/04/17 03:40:01;;;;;;;12.80;7.30;;;3.50;99.90;;;;;;5052271;28;20037;-79
2022/04/17 03:42:27;;;;;;;8.13;6.07;;;3.40;99.90;;;;;;5050498;28;20143;-82
2022/04/17 03:44:53;;;;;;;7.68;6.40;;;3.40;99.90;;;;;;5056433;28;20102;-79
2022/04/17 03:47:18;;;;;;;6.50;5.43;;;3.30;99.90;;;;;;5051239;28;20045;-80
2022/04/17 03:49:44;;;;;;;9.52;7.05;;;3.20;99.90;;;;;;5052816;28;20044;-80
2022/04/17 03:52:10;;;;;;;10.23;7.25;;;3.30;99.90;;;;;;5049764;28;20041;-80
2022/04/17 03:54:35;;;;;;;9.48;6.57;;;3.20;99.90;;;;;;5060854;28;20051;-81
2022/04/17 03:57:01;;;;;;;9.07;7.82;;;3.20;99.90;;;;;;5050301;28;20045;-81
2022/04/17 03:59:26;;;;;;;9.63;7.05;;;3.20;99.90;;;;;;5059674;28;20041;-80
2022/04/17 04:01:52;;;;;;;9.68;6.07;;;3.30;99.90;;;;;;5050674;28;20048;-81
2022/04/17 04:04:18;;;;;;;9.90;7.30;;;3.30;99.90;;;;;;5064242;28;20123;-79
2022/04/17 04:06:44;;;;;;;10.50;6.93;;;3.30;99.90;;;;;;5057008;28;20041;-81
2022/04/17 04:09:10;;;;;;;14.10;6.88;;;3.40;99.90;;;;;;5053473;28;20041;-80
2022/04/17 04:11:36;;;;;;;9.77;6.47;;;3.30;99.90;;;;;;5050722;28;20090;-79
2022/04/17 04:14:05;;;;;;;10.32;6.93;;;3.40;99.90;;;;;;5063529;28;20549;-79
2022/04/17 04:16:31;;;;;;;9.00;6.90;;;3.30;99.90;;;;;;5070078;28;20124;-78
2022/04/17 04:18:56;;;;;;;10.60;7.20;;;3.40;99.90;;;;;;5069601;28;20072;-80
2022/04/17 04:21:22;;;;;;;11.73;7.57;;;3.30;99.90;;;;;;5066701;28;20065;-81
2022/04/17 04:23:48;;;;;;;10.00;8.02;;;3.40;99.90;;;;;;5059305;28;20538;-79
2022/04/17 04:26:14;;;;;;;9.88;6.82;;;3.40;99.90;;;;;;5052126;28;20487;-78
2022/04/17 04:28:39;;;;;;;8.77;6.38;;;3.40;99.90;;;;;;5057518;28;20055;-80
2022/04/17 04:31:12;;;;;;;8.05;6.40;;;3.50;99.90;;;;;;5051766;28;20041;-79
2022/04/17 04:33:41;;;;;;;9.40;7.57;;;3.60;99.90;;;;;;5073951;28;20187;-78
2022/04/17 04:36:10;;;;;;;10.73;7.97;;;3.60;99.90;;;;;;5049657;28;20045;-79
2022/04/17 04:38:36;;;;;;;15.23;7.93;;;3.60;99.90;;;;;;5066003;28;20093;-78
2022/04/17 04:41:03;;;;;;;15.40;8.20;;;3.60;99.90;;;;;;5066624;28;20591;-80
2022/04/17 04:43:28;;;;;;;12.27;7.10;;;3.50;99.90;;;;;;5049026;28;20053;-78
2022/04/17 04:46:06;;;;;;;9.05;7.15;;;3.60;99.90;;;;;;5054847;28;20042;-81
2022/04/17 04:51:28;;;;;;;9.35;6.82;;;3.90;99.90;;;;;;5055352;28;20044;-80
2022/04/17 04:53:56;;;;;;;10.10;6.63;;;4.40;99.90;;;;;;5060459;28;20048;-79
2022/04/17 04:56:23;;;;;;;10.95;8.30;;;4.40;99.90;;;;;;5053342;28;20040;-80
2022/04/17 04:58:49;;;;;;;10.68;7.78;;;4.30;99.90;;;;;;5053665;28;20053;-77
2022/04/17 05:01:14;;;;;;;14.57;8.45;;;4.10;99.90;;;;;;5050245;28;20049;-80
2022/04/17 05:03:41;;;;;;;11.43;7.82;;;4.00;99.90;;;;;;5049133;28;20080;-77
2022/04/17 05:06:07;;;;;;;16.23;8.95;;;4.00;99.90;;;;;;5048344;28;20109;-80
2022/04/17 05:08:34;;;;;;;12.90;7.18;;;4.00;99.90;;;;;;5050009;28;20045;-79
2022/04/17 05:10:59;;;;;;;11.13;7.07;;;4.10;99.90;;;;;;5048690;28;20498;-79
2022/04/17 05:13:25;;;;;;;11.90;7.60;;;4.10;99.90;;;;;;5063600;28;20053;-80
2022/04/17 05:15:51;;;;;;;12.85;6.80;;;4.50;99.90;;;;;;5049298;28;20037;-79
2022/04/17 05:18:16;;;;;;;12.68;7.88;;;4.50;99.90;;;;;;5064562;28;20052;-80
2022/04/17 05:20:42;;;;;;;11.38;8.05;;;4.80;99.90;;;;;;5046650;28;20037;-77
2022/04/17 05:23:17;;;;;;;11.68;7.50;;;5.20;99.90;;;;;;5057150;28;20487;-79
2022/04/17 05:25:49;;;;;;;8.68;6.30;;;5.10;99.90;;;;;;5062367;28;20098;-79
2022/04/17 05:28:15;;;;;;;14.18;7.57;;;5.00;99.90;;;;;;5059028;28;20040;-78
2022/04/17 05:30:42;;;;;;;10.82;7.80;;;5.40;99.90;;;;;;5054795;28;20075;-79
2022/04/17 05:33:08;;;;;;;9.48;7.53;;;5.70;99.90;;;;;;5053369;28;20071;-80
2022/04/17 05:35:34;;;;;;;13.27;8.40;;;6.10;99.90;;;;;;5063520;28;20040;-78
2022/04/17 05:37:59;;;;;;;11.05;7.57;;;6.50;99.90;;;;;;5060224;28;20155;-79
2022/04/17 05:40:25;;;;;;;12.38;7.63;;;6.60;99.90;;;;;;5056828;28;20483;-78
2022/04/17 05:42:51;;;;;;;9.93;6.88;;;7.10;99.90;;;;;;5065490;28;20479;-79
2022/04/17 05:45:17;;;;;;;14.10;8.15;;;7.10;99.90;;;;;;5057986;28;20446;-80
2022/04/17 05:47:43;;;;;;;12.52;8.38;;;6.70;99.90;;;;;;5068221;28;20044;-77
2022/04/17 05:50:09;;;;;;;10.73;7.45;;;6.40;99.90;;;;;;5055251;28;20037;-77
2022/04/17 05:52:35;;;;;;;10.18;7.00;;;6.30;99.90;;;;;;5062843;28;20056;-79
2022/04/17 05:55:01;;;;;;;9.60;6.65;;;6.50;99.90;;;;;;5053623;28;20060;-80
2022/04/17 05:57:27;;;;;;;12.30;7.28;;;6.30;99.90;;;;;;5045253;28;20045;-79
2022/04/17 05:59:52;;;;;;;15.10;7.35;;;6.20;99.90;;;;;;5054944;28;20049;-79
2022/04/17 06:02:18;;;;;;;10.60;7.55;;;6.30;99.90;;;;;;5052882;28;20033;-80
2022/04/17 06:04:44;;;;;;;10.30;7.60;;;6.50;99.90;;;;;;5058894;28;20469;-79
2022/04/17 06:07:10;;;;;;;17.83;6.65;;;6.40;99.90;;;;;;5065909;28;20151;-79
2022/04/17 06:09:36;;;;;;;9.25;7.38;;;6.60;99.90;;;;;;5072975;28;20032;-80
2022/04/17 06:12:02;;;;;;;12.30;7.55;;;6.70;99.90;;;;;;5070863;28;20048;-80
2022/04/17 06:14:28;;;;;;;12.90;8.48;;;7.00;99.90;;;;;;5052302;28;20041;-78
2022/04/17 06:16:53;;;;;;;10.07;7.40;;;7.00;99.90;;;;;;5052469;28;20056;-81
2022/04/17 06:19:19;;;;;;;11.93;8.82;;;7.40;99.90;;;;;;5055871;28;20037;-79
2022/04/17 06:21:44;;;;;;;17.50;7.05;;;7.20;99.90;;;;;;5071655;28;20418;-79
2022/04/17 06:24:10;;;;;;;16.05;8.52;;;7.20;99.90;;;;;;5063212;28;20166;-79
2022/04/17 06:26:36;;;;;;;10.77;6.95;;;7.80;99.90;;;;;;5053327;28;20060;-81
2022/04/17 06:29:07;;;;;;;10.85;6.95;;;7.80;99.90;;;;;;5039535;28;20055;-80
2022/04/17 06:31:33;;;;;;;13.00;8.15;;;7.50;99.90;;;;;;5052759;28;20116;-80
2022/04/17 06:33:58;;;;;;;10.00;7.20;;;7.50;99.90;;;;;;5067462;28;20538;-81
2022/04/17 06:36:24;;;;;;;14.23;6.75;;;7.50;99.90;;;;;;5055716;28;20095;-79
2022/04/17 06:38:50;;;;;;;11.20;7.80;;;7.60;99.90;;;;;;5052572;28;20099;-79
2022/04/17 06:41:15;;;;;;;9.32;7.30;;;7.80;99.90;;;;;;5054963;28;20451;-79
2022/04/17 06:43:41;;;;;;;8.90;6.57;;;7.70;99.90;;;;;;5052236;28;20044;-80
2022/04/17 06:46:07;;;;;;;10.65;7.00;;;7.70;99.90;;;;;;5073641;28;20033;-80
2022/04/17 06:48:32;;;;;;;15.95;7.50;;;7.70;99.90;;;;;;5074664;28;20044;-81
2022/04/17 06:50:58;;;;;;;12.15;7.75;;;7.80;99.90;;;;;;5056977;28;20458;-81
2022/04/17 06:53:24;;;;;;;8.93;6.63;;;8.10;99.90;;;;;;5070972;28;20040;-80
2022/04/17 06:55:50;;;;;;;10.30;6.35;;;8.30;99.90;;;;;;5056474;28;20060;-80
2022/04/17 06:58:17;;;;;;;9.77;7.57;;;8.80;99.90;;;;;;5054198;28;20072;-77
2022/04/17 07:00:43;;;;;;;10.43;7.35;;;9.20;99.90;;;;;;5057301;28;20040;-81
2022/04/17 07:03:08;;;;;;;10.77;8.23;;;9.70;99.90;;;;;;5071259;28;20593;-76
2022/04/17 07:05:34;;;;;;;10.48;7.28;;;10.20;99.90;;;;;;5057107;28;20043;-79
2022/04/17 07:08:04;;;;;;;11.07;8.38;;;11.20;99.90;;;;;;5053222;28;20049;-76
2022/04/17 07:10:31;;;;;;;12.48;7.35;;;12.00;99.90;;;;;;5053739;28;20041;-73
2022/04/17 07:12:57;;;;;;;9.20;6.38;;;12.10;99.90;;;;;;5051756;28;20064;-80
2022/04/17 07:15:26;;;;;;;12.20;6.70;;;10.30;99.90;;;;;;5056866;28;20051;-80
2022/04/17 07:17:53;;;;;;;9.88;6.03;;;9.80;99.90;;;;;;5064510;28;20076;-79
2022/04/17 07:20:20;;;;;;;11.32;7.05;;;9.60;99.90;;;;;;5063921;28;20517;-80
2022/04/17 07:22:47;;;;;;;9.32;6.45;;;9.20;99.90;;;;;;5067843;28;20050;-78
2022/04/17 07:25:14;;;;;;;9.48;5.63;;;9.20;99.90;;;;;;5065848;28;20045;-78
2022/04/17 07:27:40;;;;;;;10.65;7.15;;;9.10;99.90;;;;;;5056237;28;20045;-80
2022/04/17 07:30:18;;;;;;;11.05;6.35;;;9.40;99.90;;;;;;5056343;28;20529;-79
2022/04/17 07:32:47;;;;;;;10.40;6.95;;;9.60;99.90;;;;;;5051473;28;20045;-79
2022/04/17 07:35:15;;;;;;;7.75;6.00;;;9.50;99.90;;;;;;5056651;28;20094;-79
2022/04/17 07:37:40;;;;;;;9.10;7.18;;;9.80;99.90;;;;;;5049346;28;20374;-80
2022/04/17 07:40:11;;;;;;;12.43;7.45;;;10.10;99.90;;;;;;5063067;28;20528;-81
2022/04/17 07:42:37;;;;;;;9.88;6.82;;;10.10;99.90;;;;;;5052767;28;20080;-77
2022/04/17 07:45:03;;;;;;;7.70;5.88;;;10.10;99.90;;;;;;5050847;28;20072;-80
2022/04/17 07:47:28;;;;;;;10.82;7.60;;;10.20;99.90;;;;;;5052388;28;20041;-76
2022/04/17 07:49:54;;;;;;;12.80;7.50;;;10.40;99.90;;;;;;5066406;28;20070;-78
2022/04/17 07:52:19;;;;;;;9.88;6.38;;;10.40;99.90;;;;;;5053829;28;20049;-75
2022/04/17 07:54:46;;;;;;;11.52;5.90;;;10.40;99.90;;;;;;5054189;28;20084;-79
2022/04/17 07:57:14;;;;;;;8.63;6.50;;;10.60;99.90;;;;;;5051338;28;20053;-83
2022/04/17 07:59:41;;;;;;;7.53;5.70;;;10.50;99.90;;;;;;5051178;28;20145;-80
2022/04/17 08:02:22;;;;;;;7.93;6.07;;;10.80;99.90;;;;;;5051037;28;20045;-78
2022/04/17 08:04:50;;;;;;;9.57;6.15;;;11.10;99.90;;;;;;5055285;28;20033;-79
2022/04/17 08:07:16;;;;;;;8.73;5.70;;;11.00;99.90;;;;;;5060305;28;20037;-80
2022/04/17 08:09:41;;;;;;;7.90;5.35;;;11.10;99.90;;;;;;5049419;28;20037;-83
2022/04/17 08:12:07;;;;;;;9.77;6.25;;;10.80;99.90;;;;;;5060212;28;20041;-81
2022/04/17 08:14:33;;;;;;;9.55;5.70;;;10.90;99.90;;;;;;5050679;28;20049;-80
2022/04/17 08:16:58;;;;;;;8.20;5.50;;;11.20;99.90;;;;;;5050307;28;20191;-81
2022/04/17 08:19:24;;;;;;;8.38;7.47;;;11.10;99.90;;;;;;5062451;28;20037;-81
2022/04/17 08:21:51;;;;;;;11.30;5.85;;;11.20;99.90;;;;;;5050649;28;20501;-79
2022/04/17 08:24:18;;;;;;;9.25;6.40;;;11.10;99.90;;;;;;5050691;28;20171;-81
2022/04/17 08:26:44;;;;;;;9.07;5.85;;;11.30;99.90;;;;;;5050993;28;20438;-81
2022/04/17 08:29:10;;;;;;;8.60;6.20;;;11.50;99.90;;;;;;5048460;28;20041;-82
2022/04/17 08:31:35;;;;;;;9.80;5.20;;;11.50;99.90;;;;;;5064415;28;20082;-82
2022/04/17 08:34:01;;;;;;;7.50;5.55;;;11.50;99.90;;;;;;5067111;28;20037;-80
2022/04/17 08:36:27;;;;;;;8.40;5.22;;;11.50;99.90;;;;;;5054795;28;20045;-83
2022/04/17 08:38:52;;;;;;;8.52;5.88;;;11.40;99.90;;;;;;5052097;28;20132;-83
2022/04/17 08:41:20;;;;;;;8.85;6.82;;;11.50;99.90;;;;;;5062745;28;20045;-81
2022/04/17 08:43:46;;;;;;;7.75;6.05;;;11.40;99.90;;;;;;5048902;28;20048;-82
2022/04/17 08:46:12;;;;;;;6.85;5.38;;;11.70;99.90;;;;;;5062851;28;20422;-80
2022/04/17 08:48:38;;;;;;;11.65;5.80;;;11.80;99.90;;;;;;5055490;28;20087;-80
2022/04/17 08:51:05;;;;;;;6.25;5.50;;;11.70;99.90;;;;;;5059722;28;20490;-80
2022/04/17 08:53:34;;;;;;;8.65;5.60;;;11.70;99.90;;;;;;5065192;28;20084;-79
2022/04/17 08:56:00;;;;;;;11.30;7.57;;;11.80;99.90;;;;;;5050100;28;20037;-84
2022/04/17 08:58:26;;;;;;;9.35;5.88;;;12.00;99.90;;;;;;5054779;28;20048;-82
2022/04/17 09:00:52;;;;;;;10.82;6.20;;;12.10;99.90;;;;;;5069136;28;20039;-85
2022/04/17 09:03:17;;;;;;;8.43;6.65;;;12.10;99.90;;;;;;5070065;28;20048;-87
2022/04/17 09:05:44;;;;;;;9.57;5.32;;;12.00;99.90;;;;;;5052562;28;20037;-86
2022/04/17 09:08:28;;;;;;;8.43;5.70;;;12.10;99.90;;;;;;5053620;28;20044;-78
2022/04/17 09:10:56;;;;;;;8.00;5.60;;;12.30;99.90;;;;;;5061443;28;20490;-84
2022/04/17 09:13:33;;;;;;;9.00;5.75;;;12.20;99.90;;;;;;5052097;28;20049;-85
2022/04/17 09:16:01;;;;;;;6.78;4.93;;;12.10;99.90;;;;;;5053006;28;20052;-76
2022/04/17 09:18:28;;;;;;;6.75;4.47;;;12.10;99.90;;;;;;5055352;28;20045;-85
2022/04/17 09:20:56;;;;;;;8.05;5.20;;;12.50;99.90;;;;;;5070649;28;20167;-83
2022/04/17 09:23:38;;;;;;;11.32;4.97;;;12.60;99.90;;;;;;5058461;28;20040;-83
2022/04/17 09:26:06;;;;;;;8.65;6.72;;;12.70;99.90;;;;;;5073144;28;20486;-82
2022/04/17 09:28:33;;;;;;;8.40;4.90;;;12.80;99.90;;;;;;5062517;28;20093;-78
2022/04/17 09:31:01;;;;;;;4.85;4.32;;;12.90;99.90;;;;;;5054886;28;20045;-79
2022/04/17 09:33:35;;;;;;;7.22;5.43;;;12.80;99.90;;;;;;5053357;28;20056;-78
2022/04/17 09:36:01;;;;;;;11.23;5.40;;;12.80;99.90;;;;;;5056603;28;20044;-78
2022/04/17 09:38:30;;;;;;;8.32;5.72;;;13.10;99.90;;;;;;5067739;28;20033;-77
2022/04/17 09:41:10;;;;;;;9.50;5.32;;;12.80;99.90;;;;;;5053844;28;20095;-79
2022/04/17 09:43:36;;;;;;;8.33;5.93;;;12.80;99.90;;;;;;5058599;28;20060;-78
2022/04/17 09:46:06;;;;;;;6.05;4.80;;;12.80;99.90;;;;;;5058975;28;20070;-76
2022/04/17 09:48:39;;;;;;;7.55;5.38;;;13.00;99.90;;;;;;5065997;28;20397;-79
2022/04/17 09:51:22;;;;;;;8.05;5.70;;;13.30;99.90;;;;;;5060381;28;20156;-77
2022/04/17 09:54:03;;;;;;;9.55;5.22;;;13.40;99.90;;;;;;5051607;28;20045;-78
2022/04/17 09:56:46;;;;;;;8.70;5.78;;;13.20;99.90;;;;;;5059437;28;20045;-80
2022/04/17 09:59:21;;;;;;;9.23;5.35;;;13.10;99.90;;;;;;5058835;28;20041;-79
2022/04/17 10:01:49;;;;;;;7.65;6.13;;;13.10;99.90;;;;;;5065258;28;20044;-80
2022/04/17 10:04:21;;;;;;;5.93;4.63;;;13.30;99.90;;;;;;5066053;28;20048;-78
2022/04/17 10:06:54;;;;;;;6.78;4.80;;;13.70;99.90;;;;;;5060021;28;20049;-78
2022/04/17 10:09:21;;;;;;;6.55;4.97;;;13.50;99.90;;;;;;5067373;28;20627;-77
2022/04/17 10:11:49;;;;;;;6.88;4.82;;;13.70;99.90;;;;;;5060154;28;20105;-74
2022/04/17 10:14:15;;;;;;;8.77;5.35;;;13.90;99.90;;;;;;5053976;28;20045;-72
2022/04/17 10:16:42;;;;;;;6.28;5.05;;;14.00;99.90;;;;;;5065956;28;20041;-74
2022/04/17 10:19:16;;;;;;;6.32;4.97;;;14.10;99.90;;;;;;5061121;28;20064;-76
2022/04/17 10:21:45;;;;;;;4.68;3.80;;;13.60;99.90;;;;;;5055315;28;20068;-76
2022/04/17 10:24:15;;;;;;;9.23;6.38;;;13.90;99.90;;;;;;5067928;28;20041;-75
2022/04/17 10:26:47;;;;;;;6.55;3.70;;;14.20;99.80;;;;;;5070793;28;20437;-75
2022/04/17 10:29:29;;;;;;;6.75;4.80;;;14.10;99.10;;;;;;5051341;28;20044;-76
2022/04/17 10:32:12;;;;;;;7.25;5.40;;;13.90;99.10;;;;;;5050591;28;20049;-77
2022/04/17 10:34:40;;;;;;;4.72;4.22;;;14.00;99.90;;;;;;5048926;28;20037;-75
2022/04/17 10:37:36;;;;;;;4.47;3.83;;;14.30;99.80;;;;;;5050718;28;20098;-74
2022/04/17 10:40:02;;;;;;;6.43;4.68;;;14.40;97.90;;;;;;5061676;28;20052;-74
2022/04/17 10:42:35;;;;;;;7.72;4.63;;;14.40;98.00;;;;;;5050364;28;20044;-74
2022/04/17 10:45:07;;;;;;;5.72;3.97;;;14.50;98.80;;;;;;5050400;28;20044;-77
2022/04/17 10:47:33;;;;;;;4.68;3.83;;;15.00;99.90;;;;;;5051971;28;20057;-77
2022/04/17 10:50:02;;;;;;;9.82;4.78;;;14.50;98.40;;;;;;5050999;28;20454;-76
2022/04/17 10:52:30;;;;;;;6.45;5.13;;;14.80;99.30;;;;;;5050236;28;20124;-76
2022/04/17 10:55:10;;;;;;;6.07;5.03;;;14.70;98.20;;;;;;5064253;28;20086;-76
2022/04/17 10:57:55;;;;;;;4.68;3.78;;;14.70;99.00;;;;;;5064654;28;20040;-75
2022/04/17 11:00:25;;;;;;;7.45;3.75;;;14.40;95.80;;;;;;5056056;28;20495;-74
2022/04/17 11:02:51;;;;;;;7.53;4.47;;;14.90;97.60;;;;;;5049997;28;20430;-76
2022/04/17 11:06:09;;;;;;;6.40;3.15;;;15.00;97.10;;;;;;5064913;28;20138;-76
2022/04/17 11:08:24;;;;;;;5.63;3.35;;;14.80;96.30;;;;;;5054593;28;20040;-76
2022/04/17 11:10:57;;;;;;;4.20;3.63;;;14.80;95.60;;;;;;5053202;28;20041;-77
2022/04/17 11:13:26;;;;;;;6.38;3.53;;;14.90;94.60;;;;;;5051977;28;20490;-76
2022/04/17 11:15:56;;;;;;;4.87;2.87;;;15.00;92.60;;;;;;5049218;28;20056;-75
2022/04/17 11:18:28;;;;;;;5.20;4.40;;;15.10;92.10;;;;;;5051879;28;20299;-77
2022/04/17 11:20:55;;;;;;;5.32;4.20;;;15.20;91.90;;;;;;5059406;28;20475;-77
2022/04/17 11:23:48;;;;;;;5.32;3.40;;;15.10;90.30;;;;;;5048719;28;20057;-75
2022/04/17 11:26:14;;;;;;;4.53;3.15;;;15.30;91.30;;;;;;5049231;28;20525;-76
2022/04/17 11:28:40;;;;;;;5.13;3.22;;;15.20;88.80;;;;;;5050490;28;20040;-75
2022/04/17 11:31:06;;;;;;;8.13;3.38;;;15.60;91.80;;;;;;5058431;28;20041;-75
2022/04/17 11:33:31;;;;;;;4.05;3.20;;;15.30;89.50;;;;;;5049079;28;20045;-75
2022/04/17 11:35:58;;;;;;;3.90;3.13;;;15.00;86.20;;;;;;5046646;28;20124;-74
2022/04/17 11:38:24;;;;;;;3.03;2.65;;;15.50;91.20;;;;;;5047791;28;20052;-75
2022/04/17 11:40:50;;;;;;;5.72;2.63;;;15.50;86.10;;;;;;5063811;28;20036;-76
2022/04/17 11:43:17;;;;;;;3.63;2.40;;;15.70;85.10;;;;;;5050194;28;20090;-77
2022/04/17 11:45:44;;;;;;;3.90;3.20;;;15.70;86.40;;;;;;5053376;28;20056;-78
2022/04/17 11:48:12;;;;;;;6.50;4.03;;;15.80;86.60;;;;;;5061414;28;20161;-75
2022/04/17 11:50:40;;;;;;;4.85;3.33;;;15.80;85.80;;;;;;5054045;28;20084;-76
2022/04/17 11:53:16;;;;;;;5.82;3.10;;;15.60;85.30;;;;;;5048875;28;20052;-76
2022/04/17 11:55:45;;;;;;;5.32;4.25;;;15.50;83.80;;;;;;5057578;28;20171;-76
2022/04/17 11:58:13;;;;;;;3.70;2.92;;;16.00;87.20;;;;;;5047638;28;20173;-76
2022/04/17 12:00:39;;;;;;;5.40;2.97;;;16.00;87.00;;;;;;5048731;28;20045;-76
2022/04/17 12:03:06;;;;;;;3.30;2.67;;;16.00;86.30;;;;;;5048958;28;20045;-76
2022/04/17 12:05:34;;;;;;;3.92;3.05;;;15.70;82.70;;;;;;5048015;28;20609;-77
2022/04/17 12:08:06;;;;;;;5.80;3.47;;;15.70;84.00;;;;;;5053956;28;20380;-75
2022/04/17 12:10:32;;;;;;;4.93;2.85;;;16.00;83.70;;;;;;5069401;28;20098;-77
2022/04/17 12:13:09;;;;;;;5.18;3.42;;;15.60;83.20;;;;;;5068575;28;20591;-76
2022/04/17 12:15:35;;;;;;;7.68;3.67;;;15.70;86.80;;;;;;5064480;28;20049;-77
2022/04/17 12:18:00;;;;;;;7.13;3.22;;;16.00;85.20;;;;;;5048861;28;20595;-75
2022/04/17 12:20:26;;;;;;;4.18;2.72;;;16.10;84.90;;;;;;5048675;28;20056;-77
2022/04/17 12:22:53;;;;;;;5.53;3.53;;;16.10;84.00;;;;;;5048491;28;20814;-75
2022/04/17 12:25:23;;;;;;;6.60;2.58;;;16.30;85.50;;;;;;5049205;28;20045;-76
2022/04/17 12:27:51;;;;;;;6.07;3.63;;;16.40;84.60;;;;;;5048593;28;20098;-76
2022/04/17 12:30:20;;;;;;;3.28;2.58;;;15.80;79.20;;;;;;5049408;28;20045;-77
2022/04/17 12:32:47;;;;;;;3.67;2.83;;;15.90;80.30;;;;;;5048567;28;20518;-76
2022/04/17 12:35:25;;;;;;;3.85;3.42;;;15.80;82.10;;;;;;5049053;28;20095;-76
2022/04/17 12:38:10;;;;;;;4.30;3.55;;;15.90;87.00;;;;;;5057966;28;20036;-76
2022/04/17 12:40:44;;;;;;;6.85;3.85;;;15.90;86.50;;;;;;5057782;28;20638;-76
2022/04/17 12:43:20;;;;;;;4.00;3.45;;;16.10;88.30;;;;;;5052799;28;20040;-75
2022/04/17 12:46:06;;;;;;;5.20;3.30;;;16.10;82.90;;;;;;5056789;28;20044;-76
2022/04/17 12:48:34;;;;;;;4.13;2.40;;;16.00;81.70;;;;;;5053743;28;20430;-77
2022/04/17 12:51:05;;;;;;;5.95;3.30;;;16.20;81.50;;;;;;5058813;28;20048;-79
2022/04/17 12:53:35;;;;;;;4.35;2.42;;;15.80;78.10;;;;;;5060863;28;20115;-78
2022/04/17 12:56:01;;;;;;;4.75;3.17;;;16.10;81.40;;;;;;5052486;28;20064;-74
2022/04/17 12:58:27;;;;;;;3.40;2.80;;;16.30;79.30;;;;;;5052613;28;20455;-77
2022/04/17 13:00:59;;;;;;;4.05;2.70;;;16.30;81.10;;;;;;5041656;28;20076;-76
2022/04/17 13:03:35;;;;;;;6.90;3.95;;;16.30;80.80;;;;;;5058765;28;20080;-75